Time;durP1;ratioP1;P1;durP2;ratioP2;P2;SDS_P1;SDS_P2;PMS_P1;PMS_P2;Temp;Humidity;BMP_temperature;BMP_pressure;BME280_temperature;BME280_humidity;BME280_pressure;Samples;Min_cycle;Max_cycle;Signal;HPM_P1;HPM_P2
2022/12/23 00:00:28;;;;;;;4.10;1.40;;;9.40;99.90;;;;;;6186623;23;20276;-78
2022/12/23 00:02:55;;;;;;;2.28;1.27;;;9.40;99.90;;;;;;6175679;23;20193;-78
2022/12/23 00:05:22;;;;;;;3.03;1.25;;;9.50;99.90;;;;;;6180629;23;20221;-78
2022/12/23 00:07:49;;;;;;;2.92;1.23;;;9.40;99.90;;;;;;6150752;23;20289;-78
2022/12/23 00:10:17;;;;;;;4.50;1.40;;;9.40;99.90;;;;;;6179154;23;20193;-78
2022/12/23 00:15:30;;;;;;;3.70;1.40;;;9.40;99.90;;;;;;6156266;23;20283;-78
2022/12/23 00:17:57;;;;;;;2.20;1.42;;;9.40;99.90;;;;;;6173434;23;20214;-78
2022/12/23 00:20:24;;;;;;;2.00;1.17;;;9.40;99.90;;;;;;6149883;23;20198;-78
2022/12/23 00:23:07;;;;;;;3.28;1.33;;;9.50;99.90;;;;;;6168672;23;20280;-78
2022/12/23 00:25:43;;;;;;;2.05;1.45;;;9.50;99.90;;;;;;6162934;23;20197;-77
2022/12/23 00:28:13;;;;;;;1.70;1.40;;;9.50;99.90;;;;;;6191797;23;20625;-78
2022/12/23 00:30:46;;;;;;;2.20;1.40;;;9.50;99.90;;;;;;6181129;23;20193;-78
2022/12/23 00:33:15;;;;;;;1.42;1.02;;;9.50;99.90;;;;;;6186333;23;20751;-78
2022/12/23 00:35:42;;;;;;;1.30;0.90;;;9.50;99.90;;;;;;6163190;23;21086;-78
2022/12/23 00:38:09;;;;;;;1.30;1.10;;;9.60;99.90;;;;;;6172316;23;20284;-78
2022/12/23 00:43:22;;;;;;;3.33;1.27;;;9.60;99.90;;;;;;6177618;23;20191;-78
2022/12/23 00:45:51;;;;;;;2.03;1.15;;;9.60;99.90;;;;;;6194065;23;20197;-78
2022/12/23 00:51:06;;;;;;;1.70;0.90;;;9.60;99.90;;;;;;6173463;23;20202;-78
2022/12/23 00:53:33;;;;;;;1.52;1.00;;;9.70;99.90;;;;;;6165644;23;20190;-78
2022/12/23 00:56:00;;;;;;;1.58;0.80;;;9.70;99.90;;;;;;6181863;23;20222;-78
2022/12/23 00:58:27;;;;;;;2.38;1.10;;;9.70;99.90;;;;;;6177269;23;20285;-78
2022/12/23 01:06:26;;;;;;;1.42;0.85;;;9.90;99.90;;;;;;6181931;23;20191;-78
2022/12/23 01:08:53;;;;;;;1.63;1.00;;;9.90;99.90;;;;;;6189490;23;20220;-78
2022/12/23 01:11:20;;;;;;;2.60;0.90;;;9.90;99.90;;;;;;6167258;23;20187;-78
2022/12/23 01:13:47;;;;;;;1.40;0.85;;;10.00;99.90;;;;;;6163455;23;20285;-78
2022/12/23 01:16:16;;;;;;;0.90;0.80;;;10.00;99.90;;;;;;6183739;23;20280;-79
2022/12/23 01:18:43;;;;;;;2.58;1.40;;;10.10;99.90;;;;;;6198889;23;20209;-78
2022/12/23 01:21:11;;;;;;;1.50;1.00;;;10.10;99.90;;;;;;6170557;23;20236;-78
2022/12/23 01:23:39;;;;;;;0.85;0.70;;;10.20;99.90;;;;;;6173458;23;20500;-78
2022/12/23 01:26:08;;;;;;;1.92;1.08;;;10.20;99.90;;;;;;6172362;23;20197;-78
2022/12/23 01:28:36;;;;;;;1.58;1.00;;;10.20;99.90;;;;;;6166560;23;20646;-78
2022/12/23 01:31:06;;;;;;;1.70;0.82;;;10.30;99.90;;;;;;6166251;23;20658;-78
2022/12/23 01:33:35;;;;;;;1.30;0.90;;;10.30;99.90;;;;;;6175977;23;20218;-78
2022/12/23 01:36:03;;;;;;;2.35;0.90;;;10.30;99.90;;;;;;6165783;23;20654;-78
2022/12/23 01:38:32;;;;;;;1.40;0.77;;;10.40;99.90;;;;;;6173127;23;20257;-78
2022/12/23 01:40:59;;;;;;;1.10;0.70;;;10.40;99.90;;;;;;6197108;23;20489;-78
2022/12/23 01:43:43;;;;;;;0.70;0.70;;;10.40;99.90;;;;;;6155723;23;20194;-78
2022/12/23 01:46:11;;;;;;;1.45;0.80;;;10.40;99.90;;;;;;6185092;23;20221;-78
2022/12/23 01:48:43;;;;;;;1.90;0.90;;;10.40;99.90;;;;;;6129300;23;20652;-79
2022/12/23 01:51:14;;;;;;;1.33;0.90;;;10.40;99.90;;;;;;6178742;23;20752;-78
2022/12/23 01:53:47;;;;;;;1.00;0.70;;;10.50;99.90;;;;;;6204269;23;20197;-78
2022/12/23 01:56:18;;;;;;;1.42;1.00;;;10.50;99.90;;;;;;6195310;23;20232;-78
2022/12/23 01:58:48;;;;;;;0.95;0.90;;;10.50;99.90;;;;;;6177998;23;20198;-79
2022/12/23 02:04:06;;;;;;;0.80;0.70;;;10.50;99.90;;;;;;6189812;23;20794;-78
2022/12/23 02:09:23;;;;;;;1.27;0.65;;;10.60;99.90;;;;;;6195328;23;20213;-78
2022/12/23 02:12:27;;;;;;;0.90;0.70;;;10.60;99.90;;;;;;6169531;23;20244;-78
2022/12/23 02:18:09;;;;;;;0.70;0.57;;;10.70;99.90;;;;;;6178751;23;20194;-78
2022/12/23 02:21:01;;;;;;;0.80;0.70;;;10.70;99.90;;;;;;6179955;23;20246;-79
2022/12/23 02:23:56;;;;;;;1.10;0.70;;;10.80;99.90;;;;;;6173671;23;20261;-78
2022/12/23 02:27:00;;;;;;;2.60;0.60;;;10.80;99.90;;;;;;6157891;23;20212;-78
2022/12/23 02:29:45;;;;;;;1.15;0.52;;;10.90;99.90;;;;;;6125347;23;20301;-77
2022/12/23 02:32:18;;;;;;;0.80;0.60;;;11.00;99.90;;;;;;6186074;23;20200;-78
2022/12/23 02:34:52;;;;;;;0.70;0.60;;;11.10;99.90;;;;;;6186717;23;20193;-76
2022/12/23 02:37:25;;;;;;;0.70;0.50;;;11.10;99.90;;;;;;6180696;23;20202;-77
2022/12/23 02:39:58;;;;;;;0.70;0.50;;;11.20;99.90;;;;;;6185839;23;20509;-77
2022/12/23 02:42:34;;;;;;;0.50;0.40;;;11.30;99.90;;;;;;6192738;23;20243;-78
2022/12/23 02:45:07;;;;;;;0.80;0.63;;;11.40;99.90;;;;;;6160377;23;20268;-78
2022/12/23 02:47:40;;;;;;;0.88;0.60;;;11.30;99.90;;;;;;6196001;23;20201;-78
2022/12/23 02:50:13;;;;;;;0.60;0.60;;;11.40;99.90;;;;;;6156567;23;20195;-78
2022/12/23 02:52:42;;;;;;;0.60;0.60;;;11.70;99.90;;;;;;6184363;23;20190;-78
2022/12/23 02:55:14;;;;;;;0.50;0.47;;;11.40;99.90;;;;;;6181936;23;20194;-77
2022/12/23 02:57:45;;;;;;;0.65;0.45;;;11.50;99.90;;;;;;6181191;23;20232;-78
2022/12/23 03:00:14;;;;;;;0.55;0.47;;;11.50;99.90;;;;;;6181417;23;20197;-78
2022/12/23 03:02:43;;;;;;;0.50;0.40;;;11.60;99.90;;;;;;6183461;23;20201;-78
2022/12/23 03:05:25;;;;;;;0.60;0.40;;;11.60;99.90;;;;;;6179974;23;20194;-78
2022/12/23 03:07:55;;;;;;;0.80;0.50;;;11.60;99.90;;;;;;6180133;23;20214;-78
2022/12/23 03:10:31;;;;;;;1.35;0.50;;;11.70;99.90;;;;;;6199482;23;20258;-78
2022/12/23 03:13:08;;;;;;;0.80;0.50;;;11.70;99.90;;;;;;6187755;23;20197;-78
2022/12/23 03:15:41;;;;;;;1.17;0.45;;;11.80;99.90;;;;;;6176234;23;20246;-78
2022/12/23 03:18:16;;;;;;;0.50;0.50;;;11.70;99.90;;;;;;6183440;23;20663;-78
2022/12/23 03:20:51;;;;;;;0.55;0.50;;;11.80;99.90;;;;;;6189097;23;20246;-78
2022/12/23 03:23:23;;;;;;;0.60;0.60;;;11.80;99.90;;;;;;6203636;23;20193;-78
2022/12/23 03:26:02;;;;;;;0.50;0.50;;;11.90;99.90;;;;;;6183231;23;20646;-79
2022/12/23 03:28:35;;;;;;;0.50;0.40;;;12.00;99.90;;;;;;6188664;23;20216;-78
2022/12/23 03:31:06;;;;;;;0.50;0.40;;;12.10;99.90;;;;;;6176225;23;20206;-79
2022/12/23 03:33:40;;;;;;;0.50;0.40;;;12.10;99.90;;;;;;6181988;23;20206;-78
2022/12/23 03:36:12;;;;;;;0.50;0.40;;;12.10;99.90;;;;;;6177385;23;20286;-79
2022/12/23 03:38:43;;;;;;;0.50;0.40;;;12.10;99.90;;;;;;6187578;23;20190;-79
2022/12/23 03:41:16;;;;;;;0.50;0.50;;;12.10;99.90;;;;;;6192676;23;20310;-80
2022/12/23 03:43:47;;;;;;;0.50;0.40;;;12.10;99.90;;;;;;6187628;23;20185;-79
2022/12/23 03:46:18;;;;;;;1.00;0.43;;;12.10;99.90;;;;;;6178651;23;20198;-79
2022/12/23 03:48:50;;;;;;;0.50;0.40;;;12.10;99.90;;;;;;6190618;23;20229;-79
2022/12/23 03:51:20;;;;;;;0.60;0.50;;;12.10;99.90;;;;;;6197090;23;20219;-79
2022/12/23 03:53:51;;;;;;;0.52;0.50;;;12.00;99.90;;;;;;6185155;23;20593;-79
2022/12/23 03:56:24;;;;;;;0.50;0.50;;;12.00;99.90;;;;;;6195357;23;20228;-79
2022/12/23 03:58:58;;;;;;;0.50;0.50;;;12.10;99.90;;;;;;6169859;23;20256;-79
2022/12/23 04:01:36;;;;;;;0.85;0.50;;;12.00;99.90;;;;;;6207085;23;20198;-79
2022/12/23 04:04:11;;;;;;;0.60;0.60;;;12.00;99.90;;;;;;6186172;23;20221;-79
2022/12/23 04:06:43;;;;;;;1.20;0.50;;;12.20;99.90;;;;;;6195186;23;20234;-79
2022/12/23 04:09:12;;;;;;;0.70;0.60;;;12.00;99.90;;;;;;6171443;23;20210;-79
2022/12/23 04:11:40;;;;;;;2.22;0.70;;;12.00;99.90;;;;;;6202816;23;20623;-79
2022/12/23 04:14:07;;;;;;;1.35;0.70;;;12.00;99.90;;;;;;6199289;23;20269;-79
2022/12/23 04:16:35;;;;;;;0.75;0.57;;;12.00;99.90;;;;;;6193358;23;20204;-79
2022/12/23 04:19:02;;;;;;;1.20;0.70;;;12.00;99.90;;;;;;6190355;23;20186;-79
2022/12/23 04:21:31;;;;;;;0.70;0.70;;;11.60;99.90;;;;;;6187642;23;20201;-79
2022/12/23 04:23:59;;;;;;;0.60;0.60;;;11.90;99.90;;;;;;6212561;23;20201;-79
2022/12/23 04:26:26;;;;;;;0.70;0.60;;;11.90;99.90;;;;;;6224786;23;20198;-79
2022/12/23 04:28:53;;;;;;;0.70;0.70;;;11.90;99.90;;;;;;6131319;22;20216;-80
2022/12/23 04:31:20;;;;;;;0.90;0.80;;;11.90;99.90;;;;;;6097317;23;20316;-79
2022/12/23 04:33:47;;;;;;;1.20;0.70;;;11.90;99.90;;;;;;6081196;22;20605;-79
2022/12/23 04:36:14;;;;;;;0.70;0.70;;;12.10;99.90;;;;;;6116610;22;20280;-79
2022/12/23 04:41:14;;;;;;;1.00;0.90;;;11.90;99.90;;;;;;6082190;23;20219;-79
2022/12/23 04:46:09;;;;;;;0.80;0.80;;;11.90;99.90;;;;;;6153693;23;20199;-78
2022/12/23 04:48:36;;;;;;;0.80;0.80;;;11.80;99.90;;;;;;6094948;22;20216;-78
2022/12/23 04:51:05;;;;;;;0.90;0.90;;;11.80;99.90;;;;;;6088379;22;20190;-81
2022/12/23 04:53:32;;;;;;;0.85;0.85;;;11.80;99.90;;;;;;6093183;23;20200;-78
2022/12/23 04:55:59;;;;;;;1.13;1.10;;;11.80;99.90;;;;;;6116336;22;20230;-79
2022/12/23 04:58:28;;;;;;;1.00;1.00;;;11.80;99.90;;;;;;6128040;23;20176;-79
2022/12/23 05:01:01;;;;;;;1.10;1.10;;;11.80;99.90;;;;;;6122310;23;20229;-79
2022/12/23 05:03:29;;;;;;;1.15;1.05;;;11.80;99.90;;;;;;6133907;23;20176;-78
2022/12/23 05:05:56;;;;;;;1.05;0.90;;;11.80;99.90;;;;;;6132734;22;20265;-79
2022/12/23 05:08:23;;;;;;;1.10;1.00;;;11.80;99.90;;;;;;6113942;23;20192;-79
2022/12/23 05:10:50;;;;;;;1.23;1.10;;;11.80;99.90;;;;;;6110054;22;20304;-78
2022/12/23 05:15:50;;;;;;;2.30;1.00;;;11.80;99.90;;;;;;6164251;22;20891;-79
2022/12/23 05:18:17;;;;;;;1.90;0.90;;;11.80;99.90;;;;;;6147802;22;20245;-79
2022/12/23 05:20:45;;;;;;;1.52;1.00;;;11.80;99.90;;;;;;6152976;23;20206;-79
2022/12/23 05:23:12;;;;;;;1.55;1.10;;;11.80;99.90;;;;;;6165003;22;20241;-79
2022/12/23 05:25:39;;;;;;;1.00;1.00;;;11.90;99.90;;;;;;6109023;23;20192;-78
2022/12/23 05:28:08;;;;;;;1.60;1.13;;;11.80;99.90;;;;;;6126588;22;20206;-78
2022/12/23 05:30:37;;;;;;;1.08;1.00;;;11.90;99.90;;;;;;6138023;23;20212;-78
2022/12/23 05:33:05;;;;;;;1.00;0.90;;;11.90;99.90;;;;;;6119507;22;20227;-79
2022/12/23 05:35:32;;;;;;;1.23;0.90;;;11.80;99.90;;;;;;6155312;22;20211;-79
2022/12/23 05:38:01;;;;;;;0.85;0.85;;;11.80;99.90;;;;;;6171082;22;20229;-79
2022/12/23 05:40:28;;;;;;;1.00;0.90;;;12.10;99.90;;;;;;6146597;22;20282;-79
2022/12/23 05:42:55;;;;;;;1.20;1.10;;;11.90;99.90;;;;;;6111426;23;20231;-79
2022/12/23 05:45:24;;;;;;;1.20;0.80;;;11.90;99.90;;;;;;6118671;23;20234;-80
2022/12/23 05:47:51;;;;;;;1.10;0.80;;;11.90;99.90;;;;;;6115759;23;20192;-80
2022/12/23 05:50:24;;;;;;;1.10;1.05;;;12.10;99.90;;;;;;6131012;23;20233;-79
2022/12/23 05:52:54;;;;;;;1.02;0.90;;;11.90;99.90;;;;;;6091520;23;20181;-79
2022/12/23 05:55:21;;;;;;;7.13;1.20;;;11.90;99.90;;;;;;6137053;23;20206;-79
2022/12/23 06:00:18;;;;;;;0.95;0.95;;;11.90;99.90;;;;;;6112203;23;20196;-79
2022/12/23 06:02:47;;;;;;;0.88;0.88;;;11.90;99.90;;;;;;6103979;23;20235;-79
2022/12/23 06:05:14;;;;;;;1.17;0.98;;;11.90;99.90;;;;;;6106456;23;20268;-79
2022/12/23 06:07:43;;;;;;;1.83;0.90;;;11.90;99.90;;;;;;6108956;22;20302;-79
2022/12/23 06:10:11;;;;;;;0.82;0.82;;;11.90;99.90;;;;;;6142606;23;20223;-79
2022/12/23 06:12:39;;;;;;;0.95;0.95;;;11.90;99.90;;;;;;6125418;23;20243;-79
2022/12/23 06:15:07;;;;;;;1.00;0.90;;;11.90;99.90;;;;;;6104834;23;20230;-79
2022/12/23 06:17:35;;;;;;;0.98;0.95;;;11.90;99.90;;;;;;6098712;23;20432;-79
2022/12/23 06:20:02;;;;;;;1.00;0.90;;;12.00;99.90;;;;;;6111951;23;20238;-80
2022/12/23 06:22:30;;;;;;;1.58;0.93;;;12.00;99.90;;;;;;6091346;23;20451;-79
2022/12/23 06:24:59;;;;;;;0.80;0.80;;;12.00;99.90;;;;;;6065871;23;20193;-79
2022/12/23 06:27:26;;;;;;;1.83;1.00;;;12.00;99.90;;;;;;6102367;23;20219;-79
2022/12/23 06:29:53;;;;;;;0.80;0.80;;;12.00;99.90;;;;;;6087860;23;20243;-79
2022/12/23 06:32:20;;;;;;;1.00;0.80;;;12.30;99.90;;;;;;6096950;22;20207;-79
2022/12/23 06:34:51;;;;;;;1.05;0.90;;;12.00;99.90;;;;;;6143020;23;20468;-79
2022/12/23 06:37:19;;;;;;;1.17;1.00;;;12.00;99.90;;;;;;6134756;23;20224;-79
2022/12/23 06:39:46;;;;;;;1.15;0.95;;;12.00;99.90;;;;;;6086181;23;20204;-79
2022/12/23 06:42:17;;;;;;;1.60;0.80;;;12.10;99.90;;;;;;6078920;23;20283;-78
2022/12/23 06:44:45;;;;;;;1.00;0.80;;;12.10;99.90;;;;;;6088305;23;20185;-79
2022/12/23 06:47:13;;;;;;;1.35;0.90;;;12.10;99.90;;;;;;6088659;23;20185;-79
2022/12/23 06:49:40;;;;;;;1.45;1.00;;;12.30;99.90;;;;;;6106546;22;20221;-79
2022/12/23 06:52:07;;;;;;;2.45;1.10;;;12.10;99.90;;;;;;6086640;23;20232;-79
2022/12/23 06:57:03;;;;;;;0.88;0.88;;;12.10;99.90;;;;;;6144572;22;20214;-79
2022/12/23 06:59:32;;;;;;;0.80;0.70;;;12.10;99.90;;;;;;6132155;23;20203;-78
2022/12/23 07:02:00;;;;;;;0.98;0.95;;;12.30;99.90;;;;;;6141339;23;20195;-78
2022/12/23 07:04:27;;;;;;;1.35;1.15;;;12.10;99.90;;;;;;6134320;23;20195;-78
2022/12/23 07:06:54;;;;;;;0.90;0.80;;;12.10;99.90;;;;;;6143491;23;20190;-78
2022/12/23 07:09:22;;;;;;;1.50;1.10;;;12.10;99.90;;;;;;6146015;22;20258;-79
2022/12/23 07:11:49;;;;;;;0.90;0.90;;;12.10;99.90;;;;;;6155948;23;20210;-79
2022/12/23 07:14:16;;;;;;;1.00;0.90;;;12.10;99.90;;;;;;6133621;22;20491;-79
2022/12/23 07:16:45;;;;;;;3.07;1.00;;;12.10;99.90;;;;;;6103599;23;20184;-79
2022/12/23 07:19:13;;;;;;;1.30;1.20;;;12.10;99.90;;;;;;6124045;22;20504;-79
2022/12/23 07:21:40;;;;;;;0.98;0.88;;;12.10;99.90;;;;;;6123380;23;20246;-78
2022/12/23 07:24:08;;;;;;;1.27;1.10;;;12.10;99.90;;;;;;6071353;23;20199;-78
2022/12/23 07:29:05;;;;;;;1.33;1.23;;;12.10;99.90;;;;;;6108489;23;20203;-78
2022/12/23 07:31:35;;;;;;;1.45;1.35;;;12.30;99.90;;;;;;6116048;22;20461;-79
2022/12/23 07:34:04;;;;;;;1.60;1.33;;;12.30;99.90;;;;;;6111235;22;20302;-79
2022/12/23 07:36:31;;;;;;;2.95;1.38;;;11.70;99.90;;;;;;6132172;23;20168;-79
2022/12/23 07:38:58;;;;;;;1.75;1.65;;;12.00;99.90;;;;;;6148364;23;20252;-78
2022/12/23 07:41:25;;;;;;;2.20;2.10;;;12.30;99.90;;;;;;6117115;22;20307;-78
2022/12/23 07:43:53;;;;;;;1.80;1.70;;;12.00;99.90;;;;;;6066000;23;20827;-79
2022/12/23 07:46:20;;;;;;;1.50;1.40;;;12.00;99.90;;;;;;6103500;23;20180;-78
2022/12/23 07:53:56;;;;;;;1.90;1.80;;;11.80;99.90;;;;;;6162787;23;20629;-78
2022/12/23 07:56:24;;;;;;;2.22;2.03;;;11.70;99.90;;;;;;6173449;23;20190;-79
2022/12/23 07:58:52;;;;;;;2.08;1.98;;;11.60;99.90;;;;;;6139600;23;20211;-79
2022/12/23 08:01:19;;;;;;;2.67;2.45;;;11.60;99.90;;;;;;6099184;23;20210;-79
2022/12/23 08:03:47;;;;;;;1.60;1.50;;;11.60;99.90;;;;;;6082711;22;20225;-79
2022/12/23 08:06:16;;;;;;;2.10;1.90;;;11.60;99.90;;;;;;6066372;23;20176;-79
2022/12/23 08:08:45;;;;;;;2.60;1.83;;;11.60;99.90;;;;;;6071170;23;20199;-80
2022/12/23 08:11:14;;;;;;;2.10;1.90;;;11.60;99.90;;;;;;6067045;23;20193;-79
2022/12/23 08:13:43;;;;;;;2.22;2.13;;;11.60;99.90;;;;;;6073288;22;20204;-79
2022/12/23 08:16:11;;;;;;;2.13;1.88;;;11.60;99.90;;;;;;6073687;23;20260;-79
2022/12/23 08:18:40;;;;;;;2.55;2.30;;;11.60;99.90;;;;;;6053783;23;20193;-80
2022/12/23 08:21:10;;;;;;;2.40;2.20;;;11.60;99.90;;;;;;6059523;23;20189;-78
2022/12/23 08:23:37;;;;;;;2.55;2.35;;;11.60;99.90;;;;;;6062281;23;20228;-79
2022/12/23 08:26:09;;;;;;;2.60;2.47;;;11.60;99.90;;;;;;6057496;23;20204;-79
2022/12/23 08:28:39;;;;;;;2.00;1.90;;;11.60;99.90;;;;;;6049492;23;20280;-78
2022/12/23 08:31:09;;;;;;;2.30;2.10;;;11.60;99.90;;;;;;6046211;23;20199;-79
2022/12/23 08:33:39;;;;;;;2.80;2.50;;;11.60;99.90;;;;;;6054928;23;20330;-83
2022/12/23 08:36:08;;;;;;;3.88;2.85;;;11.50;99.90;;;;;;6055809;23;20223;-78
2022/12/23 08:38:36;;;;;;;2.30;2.20;;;11.50;99.90;;;;;;6061986;23;20185;-79
2022/12/23 08:41:03;;;;;;;1.55;1.45;;;11.50;99.90;;;;;;6064169;22;20224;-80
2022/12/23 08:43:30;;;;;;;1.20;1.10;;;11.60;99.90;;;;;;6056762;23;20193;-80
2022/12/23 08:45:58;;;;;;;1.60;1.50;;;11.60;99.90;;;;;;6046100;23;20289;-78
2022/12/23 08:48:25;;;;;;;1.50;1.30;;;11.70;99.90;;;;;;6062844;23;20208;-78
2022/12/23 08:50:53;;;;;;;1.35;0.80;;;11.70;99.90;;;;;;6049564;23;20188;-78
2022/12/23 08:53:20;;;;;;;1.05;0.95;;;11.80;99.90;;;;;;6058069;23;20255;-79
2022/12/23 08:55:49;;;;;;;1.05;0.95;;;11.80;99.90;;;;;;6043307;23;20193;-78
2022/12/23 08:58:17;;;;;;;1.58;1.08;;;11.90;99.90;;;;;;6066872;23;20197;-78
2022/12/23 09:00:44;;;;;;;1.60;0.80;;;12.00;99.90;;;;;;6054965;23;20228;-78
2022/12/23 09:03:12;;;;;;;0.70;0.70;;;12.10;99.90;;;;;;6060441;23;20192;-80
2022/12/23 09:05:41;;;;;;;1.00;0.90;;;12.20;99.90;;;;;;6035185;23;20197;-79
2022/12/23 09:08:09;;;;;;;1.93;0.80;;;12.20;99.90;;;;;;6042323;23;20197;-79
2022/12/23 09:10:41;;;;;;;1.55;0.70;;;12.30;99.90;;;;;;6043322;23;20432;-83
2022/12/23 09:13:09;;;;;;;0.60;0.53;;;12.30;99.90;;;;;;6048807;23;20257;-80
2022/12/23 09:15:41;;;;;;;0.70;0.60;;;12.30;99.90;;;;;;6057950;23;20524;-79
2022/12/23 09:18:08;;;;;;;1.50;0.70;;;12.30;99.90;;;;;;6056586;23;20447;-79
2022/12/23 09:20:37;;;;;;;2.00;1.00;;;12.30;99.90;;;;;;6053757;22;20241;-80
2022/12/23 09:23:05;;;;;;;0.77;0.77;;;12.30;99.90;;;;;;6058607;22;20531;-81
2022/12/23 09:25:35;;;;;;;2.22;1.08;;;12.40;99.90;;;;;;6075948;23;20185;-81
2022/12/23 09:28:02;;;;;;;2.40;1.40;;;12.30;99.90;;;;;;6081450;23;20271;-81
2022/12/23 09:30:29;;;;;;;1.05;0.90;;;12.30;99.90;;;;;;6074306;23;20445;-82
2022/12/23 09:32:57;;;;;;;1.50;1.02;;;12.40;99.90;;;;;;6078993;23;20243;-78
2022/12/23 09:35:24;;;;;;;1.00;0.90;;;12.40;99.90;;;;;;6076443;23;20268;-77
2022/12/23 09:37:53;;;;;;;1.00;0.90;;;12.40;99.90;;;;;;6066416;23;20197;-77
2022/12/23 09:40:22;;;;;;;1.60;1.20;;;12.50;99.90;;;;;;6062003;23;20446;-77
2022/12/23 09:42:59;;;;;;;1.07;0.90;;;12.50;99.90;;;;;;6061793;23;20440;-77
2022/12/23 09:45:51;;;;;;;1.13;1.03;;;12.50;99.90;;;;;;6063084;23;20463;-77
2022/12/23 09:48:21;;;;;;;1.67;1.30;;;12.50;99.90;;;;;;6085483;23;20441;-77
2022/12/23 09:50:49;;;;;;;1.40;1.10;;;12.30;99.90;;;;;;6068279;23;20440;-80
2022/12/23 09:53:26;;;;;;;1.33;1.23;;;12.50;99.90;;;;;;6066804;23;20451;-83
2022/12/23 09:56:00;;;;;;;1.13;1.00;;;12.50;99.90;;;;;;6066692;23;20506;-83
2022/12/23 09:58:30;;;;;;;2.50;1.40;;;12.50;99.90;;;;;;6061142;23;20436;-84
2022/12/23 10:01:09;;;;;;;1.70;1.60;;;12.50;99.90;;;;;;6064369;23;20459;-78
2022/12/23 10:03:50;;;;;;;2.20;1.60;;;12.50;99.90;;;;;;6068755;23;20435;-81
2022/12/23 10:06:22;;;;;;;2.30;1.70;;;12.50;99.90;;;;;;6076673;22;20499;-78
2022/12/23 10:08:57;;;;;;;1.57;1.47;;;12.50;99.90;;;;;;6077915;23;20874;-83
2022/12/23 10:11:28;;;;;;;2.37;1.73;;;12.50;99.90;;;;;;6083945;22;20478;-82
2022/12/23 10:14:00;;;;;;;1.63;1.40;;;12.70;99.90;;;;;;6076856;23;20487;-83
2022/12/23 10:16:32;;;;;;;2.03;1.52;;;12.60;99.90;;;;;;6068478;23;20439;-83
2022/12/23 10:19:02;;;;;;;2.03;1.50;;;12.40;99.90;;;;;;6073382;23;20193;-82
2022/12/23 10:21:33;;;;;;;1.80;1.60;;;12.30;99.90;;;;;;6079673;23;20470;-81
2022/12/23 10:24:05;;;;;;;2.03;1.93;;;12.30;99.90;;;;;;6067365;23;20272;-81
2022/12/23 10:26:39;;;;;;;2.58;1.80;;;12.20;99.90;;;;;;6057638;23;20450;-81
2022/12/23 10:29:15;;;;;;;2.28;2.05;;;12.20;99.90;;;;;;6060057;23;20193;-81
2022/12/23 10:31:53;;;;;;;2.43;2.23;;;12.20;99.90;;;;;;6063012;23;20338;-81
2022/12/23 10:34:24;;;;;;;2.72;2.53;;;12.20;99.90;;;;;;6056136;23;20462;-81
2022/12/23 10:37:00;;;;;;;3.00;2.70;;;12.20;99.90;;;;;;6053610;23;20219;-81
2022/12/23 10:39:36;;;;;;;3.50;3.20;;;12.20;99.90;;;;;;6063711;23;20197;-81
2022/12/23 10:42:14;;;;;;;3.15;2.53;;;12.20;99.90;;;;;;6060140;23;20188;-82
2022/12/23 10:45:06;;;;;;;2.10;2.00;;;12.20;99.90;;;;;;6062161;23;20212;-80
2022/12/23 10:47:51;;;;;;;2.60;2.40;;;12.30;99.90;;;;;;6067159;23;20519;-80
2022/12/23 10:51:00;;;;;;;2.50;2.30;;;12.30;99.90;;;;;;6078622;23;20448;-79
2022/12/23 10:53:38;;;;;;;2.30;2.10;;;12.30;99.90;;;;;;6006216;23;20220;-81
2022/12/23 10:56:12;;;;;;;2.65;2.20;;;12.40;99.90;;;;;;6075421;23;20423;-80
2022/12/23 10:58:44;;;;;;;2.60;2.40;;;12.40;99.90;;;;;;6076039;23;20315;-81
2022/12/23 11:01:13;;;;;;;3.80;2.50;;;12.30;99.90;;;;;;6084003;23;20478;-80
2022/12/23 11:03:46;;;;;;;2.30;2.10;;;12.30;99.90;;;;;;6080921;23;20514;-81
2022/12/23 11:06:16;;;;;;;2.72;2.53;;;12.30;99.90;;;;;;6075587;23;20439;-79
2022/12/23 11:08:43;;;;;;;3.10;2.70;;;12.30;99.90;;;;;;6074772;23;20193;-80
2022/12/23 11:11:12;;;;;;;3.05;2.35;;;12.30;99.90;;;;;;6077953;23;20232;-79
2022/12/23 11:13:42;;;;;;;2.63;2.40;;;12.30;99.90;;;;;;6066181;23;20247;-79
2022/12/23 11:16:19;;;;;;;4.00;2.60;;;12.30;99.90;;;;;;6053734;23;20193;-79
2022/12/23 11:18:58;;;;;;;2.77;2.47;;;12.30;99.90;;;;;;6060501;23;20671;-81
2022/12/23 11:21:34;;;;;;;3.78;2.50;;;12.20;99.90;;;;;;6058459;23;20447;-81
2022/12/23 11:24:16;;;;;;;2.50;2.30;;;12.20;99.90;;;;;;6062185;23;20306;-81
2022/12/23 11:26:48;;;;;;;2.60;2.25;;;12.10;99.90;;;;;;6061532;23;20193;-81
2022/12/23 11:29:22;;;;;;;3.90;3.17;;;12.10;99.90;;;;;;6061155;23;20189;-81
2022/12/23 11:31:51;;;;;;;5.63;3.83;;;12.10;99.90;;;;;;6056897;23;20206;-81
2022/12/23 11:34:20;;;;;;;3.88;3.58;;;12.00;99.90;;;;;;6058610;23;20236;-81
2022/12/23 11:36:53;;;;;;;5.18;3.95;;;12.00;99.90;;;;;;6052524;23;20250;-81
2022/12/23 11:39:26;;;;;;;4.47;4.13;;;12.00;99.90;;;;;;6054139;23;20195;-81
2022/12/23 11:42:04;;;;;;;5.57;4.28;;;11.90;99.90;;;;;;6063044;23;20192;-81
2022/12/23 11:44:34;;;;;;;4.78;4.35;;;11.90;99.90;;;;;;6050223;23;20212;-80
2022/12/23 11:47:20;;;;;;;5.90;4.20;;;11.90;99.90;;;;;;6059048;23;20730;-80
2022/12/23 11:49:49;;;;;;;4.35;3.80;;;11.90;99.90;;;;;;6058599;23;20192;-80
2022/12/23 11:52:19;;;;;;;4.18;3.72;;;11.90;99.90;;;;;;6062604;23;20248;-80
2022/12/23 11:54:51;;;;;;;3.88;3.53;;;11.90;99.90;;;;;;6058542;23;20215;-81
2022/12/23 11:57:27;;;;;;;3.40;3.10;;;11.90;99.90;;;;;;6075329;23;20192;-80
2022/12/23 11:59:59;;;;;;;4.00;3.60;;;11.90;99.90;;;;;;6053273;23;20274;-81
2022/12/23 12:02:34;;;;;;;3.70;3.27;;;12.00;99.90;;;;;;6033429;23;20201;-80
2022/12/23 12:05:06;;;;;;;6.03;3.53;;;12.00;99.90;;;;;;6055698;23;20492;-80
2022/12/23 12:07:33;;;;;;;3.90;3.45;;;11.90;99.90;;;;;;6068620;23;20200;-79
2022/12/23 12:10:01;;;;;;;3.42;3.13;;;11.90;99.90;;;;;;6057538;23;20196;-80
2022/12/23 12:12:30;;;;;;;4.93;4.43;;;11.90;99.90;;;;;;6051108;23;20279;-80
2022/12/23 12:14:59;;;;;;;4.15;3.60;;;12.10;99.90;;;;;;6055537;23;20638;-77
2022/12/23 12:17:35;;;;;;;5.30;4.80;;;11.90;99.90;;;;;;6053481;23;20607;-77
2022/12/23 12:20:10;;;;;;;6.90;4.20;;;11.90;99.90;;;;;;6053645;23;20271;-77
2022/12/23 12:22:41;;;;;;;5.05;4.20;;;12.00;99.90;;;;;;6047097;23;20450;-77
2022/12/23 12:25:19;;;;;;;4.43;4.03;;;12.00;99.90;;;;;;6045982;23;20185;-76
2022/12/23 12:27:52;;;;;;;4.60;4.20;;;12.10;99.90;;;;;;6054397;23;20435;-81
2022/12/23 12:30:21;;;;;;;4.80;4.30;;;12.10;99.90;;;;;;6080884;23;20181;-81
2022/12/23 12:32:56;;;;;;;5.63;4.10;;;12.10;99.90;;;;;;6069715;23;20494;-82
2022/12/23 12:35:34;;;;;;;4.32;3.92;;;12.10;99.90;;;;;;6039853;23;20264;-80
2022/12/23 12:38:09;;;;;;;6.78;4.78;;;12.10;99.90;;;;;;6036686;23;20547;-84
2022/12/23 12:40:41;;;;;;;4.00;3.70;;;12.10;99.90;;;;;;6030872;23;20231;-79
2022/12/23 12:43:20;;;;;;;4.20;3.85;;;12.10;99.90;;;;;;6035540;23;20354;-78
2022/12/23 12:45:53;;;;;;;5.10;4.55;;;12.10;99.90;;;;;;6036398;23;20543;-78
2022/12/23 12:48:32;;;;;;;4.38;3.92;;;12.10;99.90;;;;;;6035533;23;20411;-79
2022/12/23 12:51:04;;;;;;;6.05;4.10;;;12.10;99.90;;;;;;6034456;23;20539;-81
2022/12/23 12:53:33;;;;;;;5.53;4.50;;;12.10;99.90;;;;;;6032341;23;20267;-80
2022/12/23 12:56:07;;;;;;;4.75;3.97;;;12.00;99.90;;;;;;6005203;23;20189;-80
2022/12/23 12:58:37;;;;;;;4.60;4.20;;;12.00;99.90;;;;;;6005104;23;20259;-78
2022/12/23 13:01:18;;;;;;;4.72;4.15;;;12.00;99.90;;;;;;6030754;23;20281;-78
2022/12/23 13:04:13;;;;;;;4.00;3.70;;;12.10;99.90;;;;;;6004360;23;20194;-77
2022/12/23 13:06:48;;;;;;;8.73;4.72;;;12.10;99.90;;;;;;6005677;23;20220;-79
2022/12/23 13:09:23;;;;;;;5.60;5.10;;;12.10;99.90;;;;;;6004371;23;20215;-78
2022/12/23 13:11:58;;;;;;;8.55;4.05;;;12.10;99.90;;;;;;6029606;23;20231;-78
2022/12/23 13:14:34;;;;;;;5.40;4.70;;;12.10;99.90;;;;;;6032329;23;20223;-78
2022/12/23 13:17:09;;;;;;;6.63;3.90;;;12.10;99.90;;;;;;6042200;23;20444;-78
2022/12/23 13:19:44;;;;;;;4.85;4.00;;;12.10;99.90;;;;;;6029496;23;20197;-78
2022/12/23 13:22:14;;;;;;;4.65;4.25;;;12.00;99.90;;;;;;6033978;23;20558;-78
2022/12/23 13:24:55;;;;;;;4.97;4.57;;;12.00;99.90;;;;;;6007017;23;20194;-78
2022/12/23 13:27:31;;;;;;;5.05;4.75;;;12.00;99.90;;;;;;6030189;23;20802;-78
2022/12/23 13:30:10;;;;;;;4.68;4.28;;;12.10;99.90;;;;;;6008342;23;20544;-77
2022/12/23 13:33:09;;;;;;;5.70;5.10;;;12.10;99.90;;;;;;6029490;23;20205;-78
2022/12/23 13:35:48;;;;;;;5.30;4.90;;;12.10;99.90;;;;;;6025620;23;20255;-78
2022/12/23 13:38:29;;;;;;;5.07;4.67;;;12.10;99.90;;;;;;5993900;23;20197;-75
2022/12/23 13:41:04;;;;;;;6.70;5.30;;;12.10;99.90;;;;;;6033408;23;20440;-75
2022/12/23 13:43:42;;;;;;;5.22;4.72;;;12.10;99.90;;;;;;6031781;23;20577;-75
2022/12/23 13:46:21;;;;;;;6.45;4.85;;;12.10;99.90;;;;;;6030920;23;20197;-78
2022/12/23 13:48:57;;;;;;;4.45;4.05;;;12.10;99.90;;;;;;6033575;23;20204;-79
2022/12/23 13:51:33;;;;;;;6.85;4.30;;;12.10;99.90;;;;;;6029424;23;20315;-78